CPX778 Details

Departure: Incheon International Airport (RKSI)
Arrival: Chinggis Khaan International Airport (ZMUB) at N/A
Route: NOPIK1Y NOPIK G597 DONVO A326 LADIX B339 UDA
Notes:


Current Weather Information
RKSI 251030Z 29009KT 270V360 CAVOK 25/17 Q1012 NOSIG
ZMUB 251100Z 32004MPS 9999 FEW033 18/05 Q1015 NOSIG RMK QFE653.9 44 MOP